Time;durP1;ratioP1;P1;durP2;ratioP2;P2;SDS_P1;SDS_P2;PMS_P1;PMS_P2;Temp;Humidity;BMP_temperature;BMP_pressure;BME280_temperature;BME280_humidity;BME280_pressure;Samples;Min_cycle;Max_cycle;Signal;HPM_P1;HPM_P2
2022/10/05 00:00:53;;;;;;;8.20;4.70;;;;;;;13.87;82.54;101482.16;2080564;28;37980;-73
2022/10/05 00:01:55;;;;;;;9.48;5.20;;;;;;;13.87;82.37;101487.53;2081483;28;20030;-73
2022/10/05 00:03:10;;;;;;;8.20;4.75;;;;;;;13.85;82.63;101489.38;2080495;28;35856;-74
2022/10/05 00:04:25;;;;;;;6.22;4.55;;;;;;;13.85;82.71;101489.38;2081023;28;21065;-75
2022/10/05 00:05:32;;;;;;;9.25;5.40;;;;;;;13.87;82.64;101484.84;2080383;28;29561;-73
2022/10/05 00:06:33;;;;;;;7.40;4.93;;;;;;;13.84;82.88;101493.91;2079989;28;36239;-74
2022/10/05 00:07:35;;;;;;;9.43;5.18;;;;;;;13.86;82.59;101491.16;2072338;28;39396;-74
2022/10/05 00:08:37;;;;;;;8.10;5.18;;;;;;;13.84;83.13;101483.13;2080690;28;20038;-73
2022/10/05 00:09:39;;;;;;;8.75;5.05;;;;;;;13.85;82.86;101484.00;2080847;28;29033;-73
2022/10/05 00:10:43;;;;;;;14.10;4.90;;;;;;;13.84;82.93;101484.94;2080001;28;37521;-73
2022/10/05 00:11:45;;;;;;;11.13;5.47;;;;;;;13.83;83.63;101485.84;2080102;28;30136;-73
2022/10/05 00:12:49;;;;;;;7.10;5.00;;;;;;;13.82;83.46;101484.06;2081418;28;20038;-73
2022/10/05 00:13:51;;;;;;;8.40;4.93;;;;;;;13.81;83.43;101482.31;2080581;28;20042;-74
2022/10/05 00:15:00;;;;;;;8.48;4.97;;;;;;;13.81;83.49;101477.81;2080933;28;31170;-73
2022/10/05 00:16:18;;;;;;;7.43;4.60;;;;;;;13.82;83.46;101484.06;2080228;28;29732;-73
2022/10/05 00:17:29;;;;;;;7.78;5.78;;;;;;;13.78;84.15;101471.63;2080208;28;33959;-73
2022/10/05 00:18:31;;;;;;;6.20;5.10;;;;;;;13.78;83.67;101468.94;2081087;28;30221;-73
2022/10/05 00:19:37;;;;;;;12.02;5.65;;;;;;;13.77;83.63;101473.47;2079817;28;27791;-73
2022/10/05 00:20:40;;;;;;;9.80;5.43;;;;;;;13.77;83.72;101464.50;2072018;28;40334;-73
2022/10/05 00:21:42;;;;;;;10.88;6.05;;;;;;;13.75;84.06;101468.13;2081089;28;21968;-73
2022/10/05 00:22:44;;;;;;;7.32;5.57;;;;;;;13.76;84.00;101463.59;2087926;28;28186;-72
2022/10/05 00:23:46;;;;;;;9.80;5.38;;;;;;;13.77;83.69;101461.81;2081046;28;31448;-72
2022/10/05 00:24:54;;;;;;;9.20;5.63;;;;;;;13.77;84.22;101461.81;2079455;28;37166;-73
2022/10/05 00:26:17;;;;;;;8.77;5.43;;;;;;;13.76;84.07;101466.28;2072978;28;32383;-72
2022/10/05 00:27:24;;;;;;;9.07;5.22;;;;;;;13.74;84.21;101458.25;2084595;28;27714;-73
2022/10/05 00:28:29;;;;;;;7.18;5.50;;;;;;;13.75;84.15;101464.56;2085550;28;22534;-73
2022/10/05 00:29:33;;;;;;;7.38;5.22;;;;;;;13.74;84.24;101457.38;2080173;28;30882;-73
2022/10/05 00:30:35;;;;;;;8.50;5.57;;;;;;;13.74;84.49;101460.06;2072597;28;22998;-75
2022/10/05 00:31:37;;;;;;;10.48;5.47;;;;;;;13.74;84.29;101460.06;2080045;28;35544;-73
2022/10/05 00:32:39;;;;;;;8.63;5.45;;;;;;;13.74;84.37;101466.34;2080513;28;28175;-72
2022/10/05 00:33:41;;;;;;;6.55;4.97;;;;;;;13.74;84.42;101460.06;2079935;28;20034;-74
2022/10/05 00:34:44;;;;;;;12.48;5.60;;;;;;;13.75;84.35;101459.16;2071838;28;31250;-74
2022/10/05 00:35:45;;;;;;;6.25;4.88;;;;;;;13.75;84.08;101465.41;2080536;28;29606;-74
2022/10/05 00:36:48;;;;;;;7.40;5.15;;;;;;;13.73;84.51;101459.19;2079992;28;20050;-73
2022/10/05 00:37:55;;;;;;;9.20;5.30;;;;;;;13.72;84.98;101460.13;2081279;28;20939;-73
2022/10/05 00:39:00;;;;;;;10.35;5.57;;;;;;;13.73;84.71;101459.19;2080191;28;20054;-74
2022/10/05 00:40:36;;;;;;;8.32;5.68;;;;;;;13.73;84.86;101458.31;2072514;28;24533;-73
2022/10/05 00:42:08;;;;;;;8.65;5.13;;;;;;;13.73;84.50;101461.91;2071598;28;20147;-74
2022/10/05 00:43:20;;;;;;;7.78;5.38;;;;;;;13.74;84.86;101466.34;2080675;28;20271;-74
2022/10/05 00:44:31;;;;;;;8.05;5.38;;;;;;;13.74;84.50;101471.72;2071751;28;31697;-75
2022/10/05 00:45:50;;;;;;;10.50;5.75;;;;;;;13.73;84.96;101469.97;2074134;28;28033;-74
2022/10/05 00:47:07;;;;;;;7.78;5.13;;;;;;;13.74;85.46;101473.53;2071874;28;26156;-73
2022/10/05 00:48:20;;;;;;;10.77;5.30;;;;;;;13.74;85.09;101470.84;2075415;28;30188;-73
2022/10/05 00:50:00;;;;;;;8.05;5.28;;;;;;;13.74;85.13;101469.03;2080388;28;29390;-73
2022/10/05 00:51:25;;;;;;;10.18;5.68;;;;;;;13.75;84.89;101467.25;2081359;28;20039;-73
2022/10/05 00:52:46;;;;;;;9.52;5.30;;;;;;;13.75;85.12;101473.50;2080699;28;30277;-74
2022/10/05 00:54:11;;;;;;;7.78;5.78;;;;;;;13.77;84.95;101475.28;2080715;28;28714;-74
2022/10/05 00:55:37;;;;;;;9.55;5.20;;;;;;;13.78;84.56;101468.94;2080174;28;25848;-74
2022/10/05 00:57:07;;;;;;;10.05;5.15;;;;;;;13.79;85.28;101468.03;2080536;28;32646;-75
2022/10/05 00:58:51;;;;;;;8.40;5.45;;;;;;;13.77;85.08;101461.81;2080232;28;20858;-74
2022/10/05 01:00:17;;;;;;;8.68;5.68;;;;;;;13.77;85.55;101469.88;2049160;28;20048;-75
2022/10/05 01:01:45;;;;;;;10.95;5.55;;;;;;;13.78;85.31;101471.63;2070923;28;20053;-74
2022/10/05 01:03:17;;;;;;;10.20;5.30;;;;;;;13.76;85.64;101466.28;2067580;28;27128;-74
2022/10/05 01:04:39;;;;;;;8.32;5.93;;;;;;;13.75;85.67;101462.72;2072418;28;30343;-74
2022/10/05 01:06:09;;;;;;;8.75;5.70;;;;;;;13.75;85.79;101467.25;2079930;28;34696;-74
2022/10/05 01:07:32;;;;;;;10.30;5.57;;;;;;;13.76;85.38;101458.22;2063523;28;31886;-74
2022/10/05 01:09:01;;;;;;;13.55;5.55;;;;;;;13.77;85.52;101453.75;2072156;28;27464;-74
2022/10/05 01:11:03;;;;;;;8.55;5.60;;;;;;;13.73;85.79;101451.13;2072218;28;20043;-74
2022/10/05 01:12:18;;;;;;;11.07;6.22;;;;;;;13.74;85.89;101447.50;2071788;28;20113;-74
2022/10/05 01:13:44;;;;;;;10.23;6.10;;;;;;;13.73;85.97;101439.50;2072458;28;21052;-74
2022/10/05 01:15:20;;;;;;;8.38;6.10;;;;;;;13.72;85.71;101435.91;2079954;28;20057;-74
2022/10/05 01:16:52;;;;;;;9.23;5.53;;;;;;;13.72;86.14;101443.97;2071628;28;26924;-74
2022/10/05 01:18:04;;;;;;;9.85;5.70;;;;;;;13.71;85.96;101444.91;2073144;28;20034;-74
2022/10/05 01:19:46;;;;;;;9.50;5.57;;;;;;;13.73;86.28;101443.06;2072241;28;34486;-74
2022/10/05 01:20:55;;;;;;;10.43;5.75;;;;;;;13.73;86.22;101443.06;2072807;28;20895;-74
2022/10/05 01:22:37;;;;;;;7.97;5.22;;;;;;;13.71;86.36;101447.59;2072047;28;28911;-74
2022/10/05 01:24:09;;;;;;;7.65;6.10;;;;;;;13.71;86.58;101438.63;2080232;28;20917;-74
2022/10/05 01:25:36;;;;;;;8.18;5.97;;;;;;;13.70;86.51;101440.44;2072233;28;20052;-74
2022/10/05 01:27:10;;;;;;;8.27;5.90;;;;;;;13.70;86.31;101432.38;2069668;28;34475;-74
2022/10/05 01:28:20;;;;;;;9.13;6.07;;;;;;;13.70;86.33;101434.19;2068265;28;20046;-74
2022/10/05 01:29:55;;;;;;;10.40;5.78;;;;;;;13.69;86.70;101432.41;2080150;28;24311;-74
2022/10/05 01:31:11;;;;;;;10.95;5.70;;;;;;;13.67;86.77;101432.44;2079921;28;20120;-74
2022/10/05 01:32:36;;;;;;;9.20;5.53;;;;;;;13.68;86.61;101430.66;2073280;28;30763;-73
2022/10/05 01:34:03;;;;;;;9.73;6.07;;;;;;;13.66;86.09;101427.13;2080430;28;32644;-73
2022/10/05 01:35:18;;;;;;;9.27;5.93;;;;;;;13.65;87.09;101425.34;2071633;28;20169;-73
2022/10/05 01:36:50;;;;;;;9.38;5.88;;;;;;;13.65;86.96;101417.28;2076322;28;20038;-74
2022/10/05 01:37:59;;;;;;;9.25;5.88;;;;;;;13.64;87.06;101426.25;2080146;28;20154;-73
2022/10/05 01:39:14;;;;;;;12.20;5.97;;;;;;;13.63;87.35;101424.53;2080062;28;23214;-73
2022/10/05 01:40:39;;;;;;;7.68;5.97;;;;;;;13.62;87.24;101422.75;2080998;28;20041;-73
2022/10/05 01:42:06;;;;;;;8.95;6.00;;;;;;;13.62;87.34;101422.75;2080347;28;28019;-73
2022/10/05 01:43:36;;;;;;;11.10;6.35;;;;;;;13.59;87.49;101421.03;2080475;28;20045;-73
2022/10/05 01:45:21;;;;;;;10.73;6.40;;;;;;;13.58;87.62;101411.19;2079742;28;20042;-75
2022/10/05 01:46:35;;;;;;;10.15;6.18;;;;;;;13.57;87.14;101409.44;2080286;28;31693;-74
2022/10/05 01:47:46;;;;;;;6.43;5.78;;;;;;;13.56;87.38;101410.34;2079546;28;27525;-74
2022/10/05 01:48:59;;;;;;;14.73;6.10;;;;;;;13.54;87.56;101401.44;2074580;28;20919;-74
2022/10/05 01:50:18;;;;;;;9.75;5.88;;;;;;;13.54;87.83;101399.63;2082138;28;29172;-75
2022/10/05 01:52:11;;;;;;;8.98;6.45;;;;;;;13.49;88.03;101404.25;2079989;28;20045;-74
2022/10/05 01:53:35;;;;;;;9.35;5.93;;;;;;;13.47;88.48;101397.16;2079221;28;26967;-74
2022/10/05 01:55:03;;;;;;;8.88;6.25;;;;;;;13.45;88.06;101386.44;2079970;28;27867;-73
2022/10/05 01:56:35;;;;;;;9.32;6.70;;;;;;;13.43;88.49;101384.72;2079850;28;28210;-74
2022/10/05 01:58:09;;;;;;;10.40;6.65;;;;;;;13.40;88.20;101376.72;2041697;28;20162;-73
2022/10/05 01:59:35;;;;;;;8.98;6.30;;;;;;;13.36;88.46;101382.19;2083302;28;32333;-73
2022/10/05 02:00:57;;;;;;;7.72;6.13;;;;;;;13.33;88.78;101384.97;2080771;28;20053;-73
2022/10/05 02:02:08;;;;;;;8.95;6.07;;;;;;;13.32;88.70;101383.19;2071159;28;20097;-73
2022/10/05 02:03:23;;;;;;;8.77;6.28;;;;;;;13.30;88.99;101379.63;2060637;28;20050;-74
2022/10/05 02:04:40;;;;;;;9.63;6.47;;;;;;;13.28;89.25;101377.91;2074875;28;20146;-73
2022/10/05 02:06:21;;;;;;;10.45;6.25;;;;;;;13.25;89.42;101386.06;2076888;28;20165;-73
2022/10/05 02:07:44;;;;;;;10.57;6.78;;;;;;;13.22;89.80;101378.09;2070113;28;20812;-73
2022/10/05 02:08:57;;;;;;;10.13;7.03;;;;;;;13.19;89.30;101376.38;2071440;28;20048;-75
2022/10/05 02:10:22;;;;;;;10.85;6.72;;;;;;;13.17;89.21;101378.19;2074805;28;20046;-73
2022/10/05 02:11:24;;;;;;;11.65;7.28;;;;;;;13.14;90.09;101380.97;2076410;28;20042;-73
2022/10/05 02:12:35;;;;;;;12.75;7.22;;;;;;;13.12;90.13;101374.78;2063415;28;20039;-73
2022/10/05 02:14:01;;;;;;;16.23;6.85;;;;;;;13.11;90.14;101381.94;2066348;28;21034;-74
2022/10/05 02:15:17;;;;;;;8.68;6.93;;;;;;;13.08;90.48;101387.41;2070178;28;20182;-73
2022/10/05 02:16:46;;;;;;;10.43;6.90;;;;;;;13.08;90.75;101375.75;2061185;28;20047;-75
2022/10/05 02:17:56;;;;;;;12.82;7.15;;;;;;;13.07;90.01;101371.31;2076566;28;24736;-74
2022/10/05 02:19:01;;;;;;;10.98;7.20;;;;;;;13.07;90.67;101376.69;2071536;28;20050;-75
2022/10/05 02:20:10;;;;;;;11.73;7.82;;;;;;;13.06;90.64;101385.66;2072387;28;20252;-74
2022/10/05 02:21:14;;;;;;;10.38;7.53;;;;;;;13.06;90.71;101386.53;2071628;28;20054;-75
2022/10/05 02:22:29;;;;;;;10.43;7.40;;;;;;;13.05;90.73;101378.53;2064512;28;25179;-73
2022/10/05 02:23:37;;;;;;;9.88;7.47;;;;;;;13.05;90.87;101378.53;2065171;28;30098;-74
2022/10/05 02:25:05;;;;;;;12.15;7.78;;;;;;;13.05;90.65;101387.47;2075721;28;20034;-74
2022/10/05 02:26:10;;;;;;;13.23;7.63;;;;;;;13.05;91.04;101381.22;2078307;28;20054;-74
2022/10/05 02:27:20;;;;;;;13.70;7.78;;;;;;;13.04;90.72;101382.13;2079615;28;20512;-74
2022/10/05 02:28:48;;;;;;;14.63;7.95;;;;;;;13.04;90.98;101376.75;2079687;28;20057;-74
2022/10/05 02:29:58;;;;;;;10.00;7.88;;;;;;;13.06;90.59;101380.28;2079230;28;20100;-74
2022/10/05 02:31:11;;;;;;;10.73;7.43;;;;;;;13.05;90.90;101381.22;2064642;28;20081;-74
2022/10/05 02:32:21;;;;;;;18.30;7.47;;;;;;;13.03;90.83;101381.25;2073783;28;29837;-74
2022/10/05 02:33:31;;;;;;;9.10;7.53;;;;;;;13.01;91.01;101380.44;2071631;28;23089;-74
2022/10/05 02:34:42;;;;;;;11.07;7.80;;;;;;;13.02;91.03;101381.31;2059966;28;20140;-74
2022/10/05 02:35:51;;;;;;;11.07;6.85;;;;;;;13.01;91.10;101376.84;2067797;28;20046;-73
2022/10/05 02:37:17;;;;;;;9.40;7.20;;;;;;;12.97;91.55;101371.56;2078897;28;26058;-74
2022/10/05 02:39:08;;;;;;;10.27;7.25;;;;;;;12.96;91.90;101376.97;2078794;28;20045;-74
2022/10/05 02:40:47;;;;;;;12.43;7.28;;;;;;;12.97;91.68;101367.97;2079268;28;20172;-74
2022/10/05 02:42:14;;;;;;;8.40;6.97;;;;;;;12.95;91.42;101373.38;2070941;28;20035;-74
2022/10/05 02:43:31;;;;;;;10.27;7.50;;;;;;;12.95;91.59;101368.00;2066749;28;20050;-74
2022/10/05 02:44:52;;;;;;;11.98;7.80;;;;;;;12.97;91.79;101378.72;2068001;28;20050;-75
2022/10/05 02:46:18;;;;;;;9.35;7.22;;;;;;;12.95;91.18;101372.50;2065915;28;20054;-75
2022/10/05 02:47:46;;;;;;;15.30;7.28;;;;;;;12.96;92.17;101371.59;2071218;28;20042;-75
2022/10/05 02:49:12;;;;;;;14.13;7.88;;;;;;;12.97;91.76;101368.88;2073200;28;20148;-73
2022/10/05 02:50:40;;;;;;;9.20;7.13;;;;;;;12.96;91.95;101361.72;2079112;28;20046;-74
2022/10/05 02:52:14;;;;;;;10.70;6.78;;;;;;;12.97;92.01;101362.59;2062610;28;20920;-74
2022/10/05 02:53:26;;;;;;;10.80;7.40;;;;;;;12.97;91.65;101352.75;2067502;28;20047;-74
2022/10/05 02:54:46;;;;;;;11.30;7.30;;;;;;;12.99;91.75;101352.69;2064478;28;20050;-75
2022/10/05 02:56:18;;;;;;;10.88;7.85;;;;;;;12.99;92.10;101347.31;2073639;28;20900;-74
2022/10/05 02:57:51;;;;;;;11.52;8.18;;;;;;;12.96;91.67;101339.34;2071357;28;20093;-75
2022/10/05 02:59:23;;;;;;;10.70;7.63;;;;;;;12.95;92.03;101354.56;2071277;28;23193;-73
2022/10/05 03:00:26;;;;;;;11.15;7.13;;;;;;;12.94;92.13;101355.50;2067192;28;20050;-74
2022/10/05 03:01:39;;;;;;;13.15;8.32;;;;;;;12.95;91.82;101349.19;2071698;28;20046;-75
2022/10/05 03:03:09;;;;;;;10.00;7.03;;;;;;;12.94;92.24;101344.75;2071703;28;20050;-75
2022/10/05 03:04:28;;;;;;;12.00;7.82;;;;;;;12.94;92.25;101334.00;2062620;28;34209;-74
2022/10/05 03:05:39;;;;;;;10.02;7.60;;;;;;;12.94;92.23;101347.44;2062533;28;20117;-75
2022/10/05 03:07:11;;;;;;;10.73;7.57;;;;;;;12.93;91.99;101337.59;2064431;28;20082;-74
2022/10/05 03:08:35;;;;;;;11.30;7.15;;;;;;;12.94;92.22;101346.56;2069863;28;21068;-75
2022/10/05 03:09:51;;;;;;;11.27;7.50;;;;;;;12.94;91.83;101347.44;2079420;28;20973;-74
2022/10/05 03:10:59;;;;;;;11.05;7.82;;;;;;;12.94;92.29;101352.81;2072973;28;20152;-74
2022/10/05 03:12:29;;;;;;;12.68;7.95;;;;;;;12.94;92.04;101349.25;2080827;28;26524;-75
2022/10/05 03:14:25;;;;;;;12.35;7.70;;;;;;;12.95;92.63;101357.25;2080501;28;20030;-74
2022/10/05 03:16:19;;;;;;;11.65;7.55;;;;;;;12.95;92.86;101362.63;2071558;28;21024;-74
2022/10/05 03:17:36;;;;;;;11.18;7.35;;;;;;;12.93;92.60;101353.72;2062789;28;20150;-75
2022/10/05 03:19:17;;;;;;;10.00;7.95;;;;;;;12.95;92.74;101351.00;2079136;28;20115;-75
2022/10/05 03:20:34;;;;;;;11.50;8.25;;;;;;;12.95;92.83;101351.88;2077998;28;20171;-75
2022/10/05 03:21:59;;;;;;;13.57;7.60;;;;;;;12.95;92.26;101351.88;2064060;28;20035;-74
2022/10/05 03:23:08;;;;;;;11.00;8.02;;;;;;;12.97;92.28;101343.78;2077886;28;21090;-72
2022/10/05 03:24:43;;;;;;;16.35;8.27;;;;;;;12.95;92.76;101338.44;2081132;28;20038;-73
2022/10/05 03:26:01;;;;;;;11.90;7.78;;;;;;;12.94;92.46;101343.88;2078433;28;20068;-73
2022/10/05 03:27:21;;;;;;;12.55;8.20;;;;;;;12.96;92.49;101347.41;2083170;28;20045;-73
2022/10/05 03:28:26;;;;;;;13.25;7.80;;;;;;;12.93;92.83;101342.97;2078227;28;20084;-73
2022/10/05 03:29:46;;;;;;;13.40;8.05;;;;;;;12.91;92.80;101342.13;2070374;28;20038;-74
2022/10/05 03:31:33;;;;;;;11.88;7.65;;;;;;;12.90;93.22;101343.06;2065497;28;20059;-74
2022/10/05 03:33:06;;;;;;;13.02;7.30;;;;;;;12.90;93.46;101351.16;2079793;28;20088;-74
2022/10/05 03:34:40;;;;;;;10.40;7.53;;;;;;;12.88;93.67;101344.03;2077266;28;20137;-72
2022/10/05 03:36:00;;;;;;;12.63;8.23;;;;;;;12.86;93.18;101345.88;2051555;28;20186;-73
2022/10/05 03:37:28;;;;;;;11.50;8.02;;;;;;;12.88;93.56;101346.72;2077881;28;20041;-73
2022/10/05 03:39:18;;;;;;;13.07;7.82;;;;;;;12.86;93.91;101352.13;2082446;28;21785;-73
2022/10/05 03:40:28;;;;;;;11.10;7.85;;;;;;;12.87;93.47;101356.59;2070838;28;20038;-73
2022/10/05 03:41:35;;;;;;;;;;;;;;;12.86;93.72;101343.19;2072369;28;20123;-73
2022/10/05 03:42:59;;;;;;;13.20;7.93;;;;;;;12.87;93.70;101348.53;2072115;28;20064;-76
2022/10/05 03:44:15;;;;;;;10.48;7.80;;;;;;;12.87;93.60;101343.16;2070765;28;20039;-75
2022/10/05 03:45:53;;;;;;;11.77;8.20;;;;;;;12.87;93.59;101344.97;2069720;28;20051;-73
2022/10/05 03:47:54;;;;;;;11.88;7.75;;;;;;;12.88;93.62;101334.16;2079160;28;20125;-75
2022/10/05 03:49:39;;;;;;;13.85;8.38;;;;;;;12.88;93.54;101339.53;2036651;29;20846;-74
2022/10/05 03:50:44;;;;;;;15.50;8.15;;;;;;;12.88;93.32;101339.53;2048731;28;20046;-75
2022/10/05 03:52:07;;;;;;;13.25;8.27;;;;;;;12.89;93.59;101329.69;2048808;28;20890;-74
2022/10/05 03:53:27;;;;;;;12.30;8.07;;;;;;;12.87;94.01;101340.47;2047057;28;20047;-74
2022/10/05 03:54:43;;;;;;;13.03;8.37;;;;;;;12.87;93.75;101332.41;2048977;28;20158;-75
2022/10/05 03:55:58;;;;;;;13.18;8.68;;;;;;;12.87;93.51;101335.09;2058783;28;38218;-74
2022/10/05 03:57:14;;;;;;;11.90;8.05;;;;;;;12.87;94.37;101332.41;2063000;28;20035;-74
2022/10/05 03:58:25;;;;;;;15.30;9.02;;;;;;;12.87;93.74;101327.03;2075800;28;20041;-74
2022/10/05 03:59:40;;;;;;;11.80;7.90;;;;;;;12.88;93.65;101323.41;2070802;28;21021;-75
2022/10/05 04:00:47;;;;;;;12.80;8.18;;;;;;;12.86;94.16;101333.31;2067765;28;20046;-74
2022/10/05 04:01:55;;;;;;;13.35;8.00;;;;;;;12.86;93.93;101319.00;2064895;28;20059;-75
2022/10/05 04:03:40;;;;;;;12.35;8.00;;;;;;;12.84;93.81;101332.47;2058014;28;20805;-75
2022/10/05 04:04:50;;;;;;;11.65;8.15;;;;;;;12.82;94.43;101325.38;2067581;28;20246;-74
2022/10/05 04:06:06;;;;;;;;;;;;;;;12.79;94.28;101335.31;2074103;28;21166;-75
2022/10/05 04:07:24;;;;;;;12.35;8.40;;;;;;;12.77;94.96;101325.50;2075809;28;20068;-75
2022/10/05 04:08:46;;;;;;;10.35;7.72;;;;;;;12.75;94.61;101330.03;2074525;28;20043;-75
2022/10/05 04:09:53;;;;;;;13.50;9.30;;;;;;;12.72;94.66;101325.63;2069035;28;20081;-75
2022/10/05 04:11:01;;;;;;;10.77;8.40;;;;;;;12.70;95.16;101323.88;2073152;28;31315;-75
2022/10/05 04:12:22;;;;;;;10.27;7.93;;;;;;;12.71;95.27;101312.22;2066768;28;20804;-74
2022/10/05 04:13:31;;;;;;;13.88;8.15;;;;;;;12.69;94.87;101320.31;2075844;28;20042;-75
2022/10/05 04:14:45;;;;;;;15.20;8.30;;;;;;;12.68;95.65;101313.19;2066134;28;20074;-75
2022/10/05 04:16:02;;;;;;;10.32;7.90;;;;;;;12.66;95.85;101317.72;2076914;28;20915;-75
2022/10/05 04:17:12;;;;;;;12.68;8.43;;;;;;;12.68;95.48;101323.03;2080422;28;20248;-74
2022/10/05 04:18:42;;;;;;;15.68;9.25;;;;;;;12.66;96.30;101316.84;2082900;28;20883;-75
2022/10/05 04:20:14;;;;;;;12.98;9.05;;;;;;;12.67;96.23;101315.91;2080124;28;21181;-75
2022/10/05 04:21:45;;;;;;;12.38;8.57;;;;;;;12.66;96.25;101319.53;2079886;28;24322;-75
2022/10/05 04:23:01;;;;;;;11.93;8.70;;;;;;;12.62;96.23;101321.41;2080716;28;20053;-75
2022/10/05 04:24:29;;;;;;;11.10;8.07;;;;;;;12.60;96.50;101310.69;2082547;28;20034;-74
2022/10/05 04:25:44;;;;;;;13.55;8.68;;;;;;;12.59;96.46;101308.03;2080246;28;24843;-75
2022/10/05 04:27:01;;;;;;;11.63;8.52;;;;;;;12.56;96.18;101310.78;2080709;28;20038;-75
2022/10/05 04:28:19;;;;;;;15.25;8.38;;;;;;;12.55;96.50;101311.72;2067943;28;20042;-74
2022/10/05 04:29:43;;;;;;;11.63;7.85;;;;;;;12.52;96.99;101303.75;2076203;28;20115;-75
2022/10/05 04:30:51;;;;;;;13.15;8.10;;;;;;;12.50;96.63;101311.84;2072644;28;20043;-75
2022/10/05 04:32:08;;;;;;;13.10;8.85;;;;;;;12.50;96.82;101308.28;2066117;28;21006;-74
2022/10/05 04:33:12;;;;;;;13.45;8.77;;;;;;;12.49;97.00;101307.41;2075440;28;20042;-75
2022/10/05 04:34:59;;;;;;;13.15;8.82;;;;;;;12.48;97.29;101302.94;2072731;28;20937;-75
2022/10/05 04:36:12;;;;;;;16.88;8.45;;;;;;;12.46;97.24;101301.22;2071036;28;20050;-74
2022/10/05 04:38:09;;;;;;;13.75;8.93;;;;;;;12.46;97.88;101303.91;2088675;28;20156;-75
2022/10/05 04:39:55;;;;;;;15.88;9.00;;;;;;;12.43;98.17;101298.59;2055570;28;20054;-75
2022/10/05 04:41:12;;;;;;;16.38;8.93;;;;;;;12.41;98.26;101301.31;2029730;29;20941;-75
2022/10/05 04:42:35;;;;;;;15.82;9.13;;;;;;;12.40;98.02;101302.28;2057380;28;20043;-75
2022/10/05 04:43:56;;;;;;;12.65;8.55;;;;;;;12.38;98.48;101301.41;2044494;28;20786;-75
2022/10/05 04:45:04;;;;;;;;;;;;;;;12.36;98.25;101297.88;2068454;28;27641;-75
2022/10/05 04:46:09;;;;;;;11.88;7.93;;;;;;;12.35;98.56;101301.50;2088517;28;20284;-74
2022/10/05 04:47:14;;;;;;;15.82;9.57;;;;;;;12.37;98.76;101299.66;2088813;28;20779;-75
2022/10/05 04:49:09;;;;;;;12.60;9.55;;;;;;;12.34;98.48;101297.91;2081215;28;20123;-75
2022/10/05 04:50:45;;;;;;;11.10;9.00;;;;;;;12.34;98.63;101302.41;2071102;28;20121;-75
2022/10/05 04:52:25;;;;;;;11.85;9.18;;;;;;;12.32;98.91;101290.81;2080079;28;20294;-75
2022/10/05 04:53:38;;;;;;;13.40;9.20;;;;;;;12.32;98.99;101296.19;2047192;28;20055;-75
2022/10/05 04:54:54;;;;;;;15.38;9.80;;;;;;;12.32;99.17;101293.50;2081799;28;20164;-75
2022/10/05 04:56:19;;;;;;;14.43;9.25;;;;;;;12.33;99.62;101290.78;2088466;28;20875;-74
2022/10/05 04:57:39;;;;;;;13.48;9.82;;;;;;;12.32;98.83;101297.06;2080211;28;20041;-74
2022/10/05 04:59:12;;;;;;;17.00;9.80;;;;;;;12.32;99.14;101297.06;2074959;28;20116;-74
2022/10/05 05:00:39;;;;;;;15.80;9.38;;;;;;;12.35;99.90;101290.75;2076094;28;20343;-74
2022/10/05 05:02:28;;;;;;;14.90;10.07;;;;;;;12.36;99.65;101300.56;2075487;28;20123;-74
2022/10/05 05:03:59;;;;;;;12.80;9.98;;;;;;;12.34;99.13;101300.59;2077913;28;20822;-74
2022/10/05 05:05:16;;;;;;;14.25;10.50;;;;;;;12.36;99.32;101300.56;2084362;28;20048;-74
2022/10/05 05:06:36;;;;;;;15.07;10.05;;;;;;;12.35;99.24;101297.00;2080246;28;21030;-74
2022/10/05 05:07:52;;;;;;;15.25;9.85;;;;;;;12.34;99.19;101297.03;2066133;28;20058;-74
2022/10/05 05:09:23;;;;;;;15.73;9.38;;;;;;;12.32;99.26;101294.38;2077965;28;20064;-74
2022/10/05 05:10:56;;;;;;;15.63;10.40;;;;;;;12.32;99.79;101301.56;2080130;28;20057;-74
2022/10/05 05:12:07;;;;;;;15.10;10.15;;;;;;;12.30;100.00;101304.28;2076189;28;20054;-74
2022/10/05 05:13:32;;;;;;;12.80;9.70;;;;;;;12.30;99.74;101308.78;2081109;28;20073;-74
2022/10/05 05:14:49;;;;;;;17.45;10.77;;;;;;;12.31;99.48;101294.41;2087324;28;20100;-74
2022/10/05 05:16:11;;;;;;;13.50;10.48;;;;;;;12.29;100.00;101297.16;2079651;28;20046;-74
2022/10/05 05:17:31;;;;;;;16.58;10.52;;;;;;;12.29;99.95;101296.25;2082891;28;20042;-74
2022/10/05 05:19:10;;;;;;;14.88;9.93;;;;;;;12.27;99.75;101292.72;2079707;28;20041;-74
2022/10/05 05:20:52;;;;;;;13.13;9.85;;;;;;;12.24;99.74;101293.69;2080835;28;20045;-74
2022/10/05 05:22:02;;;;;;;15.85;10.05;;;;;;;12.24;100.00;101288.34;2079754;28;20046;-74
2022/10/05 05:23:46;;;;;;;13.18;10.68;;;;;;;12.23;100.00;101281.19;2071525;28;20047;-74
2022/10/05 05:25:16;;;;;;;14.25;10.57;;;;;;;12.24;100.00;101288.34;2077904;28;20045;-74
2022/10/05 05:27:10;;;;;;;14.88;10.38;;;;;;;12.21;100.00;101288.41;2072010;28;20069;-74
2022/10/05 05:29:04;;;;;;;15.85;10.65;;;;;;;12.22;100.00;101291.06;2054555;28;20996;-73
2022/10/05 05:30:28;;;;;;;18.52;11.43;;;;;;;12.19;100.00;101280.38;2068455;28;20054;-74
2022/10/05 05:32:03;;;;;;;19.35;11.82;;;;;;;12.19;100.00;101272.31;2066667;28;27837;-74
2022/10/05 05:33:22;;;;;;;17.52;11.57;;;;;;;12.18;100.00;101278.59;2036147;29;20060;-75
2022/10/05 05:34:51;;;;;;;14.77;11.10;;;;;;;12.18;100.00;101277.72;2052440;28;20051;-75
2022/10/05 05:36:47;;;;;;;15.00;11.57;;;;;;;12.16;100.00;101264.34;2063626;28;20980;-73
2022/10/05 05:38:29;;;;;;;14.55;11.40;;;;;;;12.18;100.00;101264.31;2077124;28;20038;-74
2022/10/05 05:39:48;;;;;;;17.23;11.52;;;;;;;12.18;100.00;101270.53;2071664;28;20047;-73
2022/10/05 05:41:02;;;;;;;18.10;12.30;;;;;;;12.18;100.00;101266.97;2071636;28;21049;-74
2022/10/05 05:43:00;;;;;;;14.90;11.55;;;;;;;12.17;100.00;101275.97;2073123;28;26418;-75
2022/10/05 05:44:24;;;;;;;15.70;11.15;;;;;;;12.14;100.00;101271.53;2071270;28;20051;-73
2022/10/05 05:45:51;;;;;;;16.60;11.98;;;;;;;12.14;100.00;101265.31;2063705;28;20047;-74
2022/10/05 05:47:29;;;;;;;16.10;11.80;;;;;;;12.15;100.00;101267.97;2063204;28;27903;-73
2022/10/05 05:48:39;;;;;;;18.85;12.10;;;;;;;12.17;100.00;101260.75;2063700;28;20047;-74
2022/10/05 05:50:01;;;;;;;16.25;12.38;;;;;;;12.17;100.00;101266.09;2056801;28;20088;-75
2022/10/05 05:51:20;;;;;;;19.02;12.77;;;;;;;12.17;100.00;101266.09;2062505;28;20046;-74
2022/10/05 05:52:45;;;;;;;16.25;12.70;;;;;;;12.20;100.00;101274.09;2072297;28;21065;-74
2022/10/05 05:53:54;;;;;;;15.27;12.65;;;;;;;12.19;100.00;101266.94;2063239;28;20038;-73
2022/10/05 05:55:05;;;;;;;18.27;12.77;;;;;;;12.21;100.00;101266.91;2068058;28;26883;-73
2022/10/05 05:56:12;;;;;;;17.92;12.80;;;;;;;12.20;100.00;101270.50;2071709;28;20674;-74
2022/10/05 05:57:45;;;;;;;18.98;12.43;;;;;;;12.24;100.00;101266.84;2057231;28;20051;-75
2022/10/05 05:58:59;;;;;;;16.40;12.13;;;;;;;12.24;100.00;101266.84;2066033;28;20475;-75
2022/10/05 06:00:15;;;;;;;16.50;12.02;;;;;;;12.24;100.00;101258.81;2072973;28;20042;-72
2022/10/05 06:01:39;;;;;;;17.45;12.55;;;;;;;12.27;100.00;101255.13;2075349;28;20125;-75
2022/10/05 06:03:10;;;;;;;17.38;13.55;;;;;;;12.29;100.00;101250.63;2083875;28;20080;-75
2022/10/05 06:04:21;;;;;;;16.38;12.80;;;;;;;12.31;100.00;101254.13;2075177;28;20911;-75
2022/10/05 06:05:48;;;;;;;16.85;12.63;;;;;;;12.34;100.00;101259.44;2071551;28;20050;-75
2022/10/05 06:06:54;;;;;;;18.98;12.50;;;;;;;12.35;100.00;101259.41;2079119;28;20988;-72
2022/10/05 06:08:03;;;;;;;18.42;12.68;;;;;;;12.37;100.00;101265.63;2079535;28;20145;-74
2022/10/05 06:09:18;;;;;;;21.40;13.05;;;;;;;12.41;100.00;101259.22;2072902;28;20931;-74
2022/10/05 06:10:49;;;;;;;20.77;13.00;;;;;;;12.42;100.00;101260.13;2080992;28;20042;-73
2022/10/05 06:11:57;;;;;;;15.02;12.30;;;;;;;12.46;100.00;101269.88;2077087;28;20340;-73
2022/10/05 06:13:13;;;;;;;20.13;13.05;;;;;;;12.48;100.00;101269.84;2079696;28;20042;-73